Time;durP1;ratioP1;P1;durP2;ratioP2;P2;SDS_P1;SDS_P2;PMS_P1;PMS_P2;Temp;Humidity;BMP_temperature;BMP_pressure;BME280_temperature;BME280_humidity;BME280_pressure;Samples;Min_cycle;Max_cycle;Signal;HPM_P1;HPM_P2
2021/04/21 00:01:25;;;;;;;53.50;39.63;;;11.10;99.90;;;;;;5069849;28;20048;-84
2021/04/21 00:03:55;;;;;;;55.70;40.28;;;11.00;99.90;;;;;;5072079;28;20029;-83
2021/04/21 00:06:25;;;;;;;53.72;39.72;;;11.00;99.90;;;;;;5070772;28;20421;-83
2021/04/21 00:08:53;;;;;;;54.78;39.17;;;10.90;99.90;;;;;;5070174;28;20064;-83
2021/04/21 00:11:19;;;;;;;57.75;40.80;;;10.90;99.90;;;;;;5069468;28;20524;-83
2021/04/21 00:13:46;;;;;;;54.78;41.90;;;10.90;99.90;;;;;;5069385;28;20045;-83
2021/04/21 00:16:14;;;;;;;55.58;41.58;;;10.80;99.90;;;;;;5069896;28;20108;-82
2021/04/21 00:18:44;;;;;;;56.92;42.20;;;10.90;99.90;;;;;;5070036;28;20053;-83
2021/04/21 00:21:12;;;;;;;53.78;40.10;;;10.90;99.90;;;;;;5070257;28;20060;-83
2021/04/21 00:23:40;;;;;;;58.58;41.72;;;10.90;99.90;;;;;;5068879;28;20041;-83
2021/04/21 00:26:10;;;;;;;54.58;40.03;;;10.90;99.90;;;;;;5062856;28;20056;-80
2021/04/21 00:28:37;;;;;;;58.63;41.33;;;10.90;99.90;;;;;;5069104;28;20049;-83
2021/04/21 00:31:06;;;;;;;59.58;43.85;;;10.80;99.90;;;;;;5068562;28;20060;-83
2021/04/21 00:33:36;;;;;;;55.13;39.80;;;10.70;99.90;;;;;;5068431;28;20055;-83
2021/04/21 00:36:06;;;;;;;61.80;42.45;;;10.70;99.90;;;;;;5063389;28;20041;-83
2021/04/21 00:38:35;;;;;;;64.40;44.17;;;10.60;99.90;;;;;;5059408;28;20049;-81
2021/04/21 00:41:12;;;;;;;63.03;42.75;;;10.50;99.90;;;;;;5051085;28;20056;-82
2021/04/21 00:43:44;;;;;;;62.80;44.38;;;10.50;99.90;;;;;;5059376;28;20064;-82
2021/04/21 00:46:13;;;;;;;58.55;42.75;;;10.50;99.90;;;;;;5067035;28;20056;-82
2021/04/21 00:48:57;;;;;;;63.97;45.63;;;10.40;99.90;;;;;;5067909;28;20099;-82
2021/04/21 00:51:29;;;;;;;60.20;44.50;;;10.50;99.90;;;;;;5067484;28;20057;-85
2021/04/21 00:54:09;;;;;;;62.25;45.22;;;10.40;99.90;;;;;;5068560;28;20084;-85
2021/04/21 00:56:59;;;;;;;65.32;44.58;;;10.40;99.90;;;;;;5068463;28;20045;-84
2021/04/21 00:59:38;;;;;;;60.30;45.20;;;10.30;99.90;;;;;;5072691;28;20044;-84
2021/04/21 01:02:08;;;;;;;64.45;45.35;;;10.30;99.90;;;;;;5075059;28;20045;-84
2021/04/21 01:04:37;;;;;;;65.93;47.20;;;10.30;99.90;;;;;;5067946;28;20405;-82
2021/04/21 01:07:05;;;;;;;62.65;44.33;;;10.30;99.90;;;;;;5066698;28;20032;-82
2021/04/21 01:09:33;;;;;;;68.32;46.10;;;10.30;99.90;;;;;;5063040;28;20076;-83
2021/04/21 01:12:05;;;;;;;67.03;47.92;;;10.30;99.90;;;;;;5068215;28;20049;-83
2021/04/21 01:14:40;;;;;;;65.80;46.72;;;10.30;99.90;;;;;;5069216;28;20057;-82
2021/04/21 01:17:10;;;;;;;66.00;46.97;;;10.30;99.90;;;;;;5067208;28;20053;-82
2021/04/21 01:19:57;;;;;;;68.75;47.45;;;10.30;99.90;;;;;;5067397;28;20110;-83
2021/04/21 01:22:56;;;;;;;68.28;46.95;;;10.30;99.90;;;;;;5062356;28;20053;-85
2021/04/21 01:25:28;;;;;;;65.47;46.40;;;10.30;99.90;;;;;;5031122;28;20056;-84
2021/04/21 01:28:01;;;;;;;69.90;47.43;;;10.30;99.90;;;;;;5064231;28;20045;-85
2021/04/21 01:30:30;;;;;;;70.75;48.42;;;10.30;99.90;;;;;;5065215;28;20300;-84
2021/04/21 01:33:04;;;;;;;74.35;48.20;;;10.30;99.90;;;;;;5066839;28;20189;-83
2021/04/21 01:35:31;;;;;;;69.68;48.15;;;10.30;99.90;;;;;;5066524;28;20052;-83
2021/04/21 01:38:02;;;;;;;71.55;49.13;;;10.30;99.90;;;;;;5065354;28;20045;-84
2021/04/21 01:40:31;;;;;;;69.40;49.40;;;10.30;99.90;;;;;;5065822;28;20053;-83
2021/04/21 01:43:05;;;;;;;75.32;50.67;;;10.20;99.90;;;;;;5066827;28;20065;-84
2021/04/21 01:45:35;;;;;;;74.53;50.58;;;10.20;99.90;;;;;;5064476;28;20056;-83
2021/04/21 01:48:07;;;;;;;74.32;50.85;;;10.20;99.90;;;;;;5063021;28;20045;-85
2021/04/21 01:50:34;;;;;;;72.57;50.03;;;10.20;99.90;;;;;;5063529;28;20075;-80
2021/04/21 01:53:10;;;;;;;77.03;49.78;;;10.20;99.90;;;;;;5063764;28;20049;-83
2021/04/21 01:56:03;;;;;;;72.63;49.83;;;10.10;99.90;;;;;;5061638;28;20084;-82
2021/04/21 01:58:59;;;;;;;69.55;49.28;;;10.10;99.90;;;;;;5046048;28;20433;-82
2021/04/21 02:01:36;;;;;;;68.80;48.55;;;10.10;99.90;;;;;;5061229;28;20481;-82
2021/04/21 02:04:10;;;;;;;74.70;49.22;;;10.00;99.90;;;;;;5062798;28;20049;-83
2021/04/21 02:06:57;;;;;;;69.53;48.65;;;9.90;99.90;;;;;;5060939;28;20497;-83
2021/04/21 02:09:47;;;;;;;69.82;48.20;;;9.90;99.90;;;;;;5060396;28;20060;-83
2021/04/21 02:12:29;;;;;;;72.53;49.78;;;9.90;99.90;;;;;;5058550;28;20152;-85
2021/04/21 02:15:04;;;;;;;69.93;48.65;;;9.80;99.90;;;;;;5059992;28;20077;-84
2021/04/21 02:17:36;;;;;;;72.40;48.13;;;9.80;99.90;;;;;;5061233;28;20052;-84
2021/04/21 02:20:15;;;;;;;71.40;47.63;;;9.80;99.90;;;;;;5068070;28;20103;-86
2021/04/21 02:22:48;;;;;;;78.22;49.63;;;9.70;99.90;;;;;;5075099;28;20056;-84
2021/04/21 02:25:22;;;;;;;69.05;47.60;;;9.70;99.90;;;;;;5075545;28;20045;-85
2021/04/21 02:27:57;;;;;;;64.05;44.50;;;9.80;99.90;;;;;;5075536;28;20045;-84
2021/04/21 02:30:32;;;;;;;63.40;43.05;;;9.80;99.90;;;;;;5077775;28;20114;-85
2021/04/21 02:33:08;;;;;;;65.28;46.30;;;9.80;99.90;;;;;;5077855;28;20045;-87
2021/04/21 02:35:42;;;;;;;63.05;43.92;;;9.80;99.90;;;;;;5077208;28;20033;-86
2021/04/21 02:38:23;;;;;;;63.53;44.30;;;9.90;99.90;;;;;;5068719;28;20072;-85
2021/04/21 02:41:01;;;;;;;58.60;43.78;;;9.80;99.90;;;;;;5069718;28;20136;-87
2021/04/21 02:43:50;;;;;;;59.78;41.05;;;9.70;99.90;;;;;;5068665;28;20060;-85
2021/04/21 02:46:22;;;;;;;58.60;41.33;;;9.70;99.90;;;;;;5068429;28;20083;-86
2021/04/21 02:48:59;;;;;;;60.58;42.58;;;9.60;99.90;;;;;;5068690;28;20072;-85
2021/04/21 02:51:35;;;;;;;63.42;43.00;;;9.50;99.90;;;;;;5068646;28;20056;-84
2021/04/21 02:54:09;;;;;;;61.25;43.20;;;9.40;99.90;;;;;;5067908;28;20080;-83
2021/04/21 02:56:42;;;;;;;60.83;44.30;;;9.30;99.90;;;;;;5069562;28;20053;-82
2021/04/21 02:59:13;;;;;;;;;;;9.30;99.90;;;;;;5069460;28;20052;-82
2021/04/21 03:01:50;;;;;;;61.53;42.45;;;9.20;99.90;;;;;;5070391;28;19920;-83
2021/04/21 03:04:23;;;;;;;63.97;44.22;;;9.20;99.90;;;;;;5072174;28;20135;-83
2021/04/21 03:06:50;;;;;;;63.72;44.60;;;9.10;99.90;;;;;;5067101;28;20053;-83
2021/04/21 03:09:30;;;;;;;59.55;42.75;;;9.00;99.90;;;;;;5066430;28;20057;-84
2021/04/21 03:11:59;;;;;;;61.90;43.47;;;9.00;99.90;;;;;;5069259;28;20055;-87
2021/04/21 03:14:30;;;;;;;61.92;42.92;;;9.00;99.90;;;;;;5069217;28;20075;-85
2021/04/21 03:17:00;;;;;;;62.78;44.78;;;9.00;99.90;;;;;;5068131;28;20045;-84
2021/04/21 03:19:29;;;;;;;65.40;44.83;;;9.00;99.90;;;;;;5070649;28;20517;-84
2021/04/21 03:22:16;;;;;;;63.53;43.85;;;9.10;99.90;;;;;;5071497;28;20057;-85
2021/04/21 03:24:47;;;;;;;65.30;45.40;;;9.00;99.90;;;;;;5072121;28;20037;-84
2021/04/21 03:27:17;;;;;;;59.63;43.15;;;9.10;99.90;;;;;;5070600;28;20240;-84
2021/04/21 03:29:48;;;;;;;57.20;43.15;;;9.10;99.90;;;;;;5067038;28;20061;-85
2021/04/21 03:32:21;;;;;;;62.22;43.08;;;9.10;99.90;;;;;;5065593;28;20075;-84
2021/04/21 03:35:04;;;;;;;60.63;41.70;;;9.10;99.90;;;;;;5065893;28;20469;-85
2021/04/21 03:37:41;;;;;;;60.85;42.83;;;9.10;99.90;;;;;;5068754;28;20052;-84
2021/04/21 03:40:09;;;;;;;62.17;44.05;;;9.10;99.90;;;;;;5072940;28;20049;-84
2021/04/21 03:42:38;;;;;;;56.83;42.33;;;9.20;99.90;;;;;;5074157;28;20112;-83
2021/04/21 03:45:09;;;;;;;60.38;43.35;;;9.20;99.90;;;;;;5072278;28;20057;-83
2021/04/21 03:47:37;;;;;;;61.20;41.45;;;9.20;99.90;;;;;;5072691;28;20052;-83
2021/04/21 03:50:07;;;;;;;64.45;44.13;;;9.30;99.90;;;;;;5071462;28;20048;-84
2021/04/21 03:52:37;;;;;;;59.72;42.35;;;9.30;99.90;;;;;;5068910;28;20102;-83
2021/04/21 03:55:05;;;;;;;61.22;43.15;;;9.30;99.90;;;;;;5069411;28;20071;-83
2021/04/21 03:57:36;;;;;;;60.58;42.83;;;9.40;99.90;;;;;;5068732;28;20105;-83
2021/04/21 04:00:05;;;;;;;58.97;43.35;;;9.30;99.90;;;;;;5067447;28;20202;-83
2021/04/21 04:02:38;;;;;;;61.47;42.63;;;9.30;99.90;;;;;;5068683;28;20072;-84
2021/04/21 04:05:09;;;;;;;62.38;43.25;;;9.40;99.90;;;;;;5070624;28;20072;-83
2021/04/21 04:07:41;;;;;;;57.15;42.45;;;9.40;99.90;;;;;;5066333;28;20087;-84
2021/04/21 04:10:13;;;;;;;61.28;44.25;;;9.40;99.90;;;;;;5068598;28;20513;-83
2021/04/21 04:12:43;;;;;;;62.85;45.72;;;9.50;99.90;;;;;;5067143;28;20084;-83
2021/04/21 04:15:10;;;;;;;64.70;43.50;;;9.50;99.90;;;;;;5077334;28;20029;-83
2021/04/21 04:17:40;;;;;;;63.40;44.80;;;9.50;99.90;;;;;;5077511;28;20100;-83
2021/04/21 04:20:17;;;;;;;67.60;44.60;;;9.50;99.90;;;;;;5078077;28;20037;-83
2021/04/21 04:22:48;;;;;;;65.07;45.17;;;9.50;99.90;;;;;;5072026;28;20052;-85
2021/04/21 04:25:15;;;;;;;63.15;44.60;;;9.40;99.90;;;;;;5064833;28;20078;-84
2021/04/21 04:27:42;;;;;;;59.13;44.05;;;9.40;99.90;;;;;;5065157;28;20049;-82
2021/04/21 04:30:10;;;;;;;60.85;44.25;;;9.50;99.90;;;;;;5063892;28;20087;-83
2021/04/21 04:32:42;;;;;;;61.63;45.28;;;9.50;99.90;;;;;;5063397;28;20422;-84
2021/04/21 04:35:12;;;;;;;61.08;44.67;;;9.50;99.90;;;;;;5066736;28;20049;-82
2021/04/21 04:37:41;;;;;;;60.97;43.80;;;9.60;99.90;;;;;;5068392;28;20071;-82
2021/04/21 04:40:09;;;;;;;64.40;45.30;;;9.60;99.90;;;;;;5083768;23;20528;-79
2021/04/21 04:42:37;;;;;;;63.28;44.17;;;9.60;99.90;;;;;;5067136;28;20045;-79
2021/04/21 04:45:05;;;;;;;70.32;45.83;;;9.60;99.90;;;;;;5058087;28;20053;-78
2021/04/21 04:47:38;;;;;;;66.65;46.10;;;9.70;99.90;;;;;;5058538;28;20131;-80
2021/04/21 04:50:06;;;;;;;64.68;43.65;;;9.70;99.90;;;;;;5063709;28;20044;-78
2021/04/21 04:52:36;;;;;;;64.03;44.50;;;9.80;99.90;;;;;;5073578;28;20044;-78
2021/04/21 04:55:06;;;;;;;66.72;45.83;;;9.80;99.90;;;;;;5073864;28;20131;-80
2021/04/21 04:57:33;;;;;;;62.63;44.75;;;9.80;99.90;;;;;;5075355;28;20079;-80
2021/04/21 05:00:01;;;;;;;62.72;45.53;;;9.80;99.90;;;;;;5075325;28;20393;-78
2021/04/21 05:02:34;;;;;;;63.75;45.40;;;9.80;99.90;;;;;;5077667;28;20131;-78
2021/04/21 05:05:02;;;;;;;;;;;9.90;99.90;;;;;;5078688;28;20113;-79
2021/04/21 05:07:36;;;;;;;64.55;45.97;;;10.00;99.90;;;;;;5077210;28;20003;-80
2021/04/21 05:10:05;;;;;;;62.55;44.78;;;10.00;99.90;;;;;;5077853;28;20072;-80
2021/04/21 05:12:37;;;;;;;70.75;46.95;;;10.10;99.90;;;;;;5077844;28;20097;-80
2021/04/21 05:15:05;;;;;;;65.07;45.58;;;10.20;99.90;;;;;;5078416;28;20445;-80
2021/04/21 05:18:22;;;;;;;68.35;46.65;;;10.20;99.90;;;;;;5078123;28;20072;-80
2021/04/21 05:21:27;;;;;;;65.88;46.70;;;10.30;99.90;;;;;;5077694;28;20076;-81
2021/04/21 05:24:40;;;;;;;70.75;48.65;;;10.40;99.90;;;;;;5078336;28;20074;-81
2021/04/21 05:27:41;;;;;;;79.72;54.78;;;10.50;99.90;;;;;;5077163;28;20048;-79
2021/04/21 05:30:33;;;;;;;74.80;53.75;;;10.60;99.90;;;;;;5072880;28;20053;-79
2021/04/21 05:33:43;;;;;;;78.03;55.65;;;10.70;99.90;;;;;;5075214;28;20571;-80
2021/04/21 05:36:45;;;;;;;80.30;56.97;;;10.80;99.90;;;;;;5076584;28;20123;-79
2021/04/21 05:39:51;;;;;;;78.75;58.90;;;10.90;99.90;;;;;;5075377;28;20464;-78
2021/04/21 05:43:05;;;;;;;79.22;58.45;;;11.00;99.90;;;;;;5058193;28;20092;-79
2021/04/21 05:46:05;;;;;;;80.25;59.97;;;11.20;99.90;;;;;;5076413;28;20136;-80
2021/04/21 05:49:20;;;;;;;83.18;59.55;;;11.30;99.90;;;;;;5042213;28;20135;-80
2021/04/21 05:52:00;;;;;;;81.10;59.20;;;11.40;99.90;;;;;;5078163;28;20084;-81
2021/04/21 05:54:59;;;;;;;83.10;61.53;;;11.50;99.90;;;;;;5076769;28;20500;-80
2021/04/21 05:58:15;;;;;;;75.93;58.17;;;11.70;99.90;;;;;;5076048;28;20127;-80
2021/04/21 06:01:18;;;;;;;78.03;57.00;;;11.70;99.90;;;;;;5077543;28;20048;-80
2021/04/21 06:03:46;;;;;;;;;;;11.80;99.90;;;;;;5077019;28;20044;-81
2021/04/21 06:06:13;;;;;;;77.93;58.88;;;11.90;99.90;;;;;;5077000;28;19920;-79
2021/04/21 06:08:40;;;;;;;83.22;59.88;;;11.80;99.90;;;;;;5077603;28;20048;-81
2021/04/21 06:11:16;;;;;;;76.05;59.08;;;11.80;99.90;;;;;;5077558;28;20083;-81
2021/04/21 06:13:44;;;;;;;75.78;58.03;;;11.90;99.90;;;;;;5076547;28;20056;-81
2021/04/21 06:16:16;;;;;;;77.65;60.67;;;12.00;99.90;;;;;;5076906;28;20044;-79
2021/04/21 06:18:43;;;;;;;85.55;59.85;;;11.90;99.90;;;;;;5077459;28;20476;-81
2021/04/21 06:21:16;;;;;;;81.13;61.15;;;11.80;99.90;;;;;;5077817;28;20048;-80
2021/04/21 06:23:44;;;;;;;86.45;62.10;;;11.80;99.90;;;;;;5077017;28;20056;-80
2021/04/21 06:26:12;;;;;;;80.55;60.78;;;11.80;99.90;;;;;;5077068;28;20080;-81
2021/04/21 06:28:39;;;;;;;80.72;60.83;;;11.80;99.90;;;;;;5077357;28;20051;-81
2021/04/21 06:31:07;;;;;;;82.25;61.80;;;11.90;99.90;;;;;;5076271;28;20106;-80
2021/04/21 06:33:35;;;;;;;80.60;60.72;;;11.80;99.90;;;;;;5075898;28;20059;-80
2021/04/21 06:36:02;;;;;;;80.70;61.28;;;11.90;99.90;;;;;;5077183;28;20091;-81
2021/04/21 06:38:29;;;;;;;81.70;60.67;;;11.80;99.90;;;;;;5077060;28;20108;-81
2021/04/21 06:40:57;;;;;;;80.82;59.75;;;11.80;99.90;;;;;;5076063;28;20049;-79
2021/04/21 06:43:25;;;;;;;81.65;59.85;;;11.80;99.90;;;;;;5077372;28;20135;-82
2021/04/21 06:45:53;;;;;;;77.10;57.88;;;11.80;99.90;;;;;;5059390;28;20059;-80
2021/04/21 06:48:27;;;;;;;80.57;59.15;;;11.80;99.90;;;;;;5079367;28;20045;-79
2021/04/21 06:50:54;;;;;;;83.07;58.78;;;11.70;99.90;;;;;;5080145;28;20106;-80
2021/04/21 06:53:29;;;;;;;84.50;61.90;;;11.80;99.90;;;;;;5079044;28;20069;-79
2021/04/21 06:55:57;;;;;;;84.85;61.72;;;11.80;99.90;;;;;;5077716;28;20189;-80
2021/04/21 06:58:26;;;;;;;79.78;59.80;;;11.80;99.90;;;;;;5075973;28;20108;-80
2021/04/21 07:00:53;;;;;;;82.50;61.00;;;11.80;99.90;;;;;;5076468;28;20064;-80
2021/04/21 07:03:20;;;;;;;82.63;59.80;;;11.80;99.90;;;;;;5075923;28;20476;-80
2021/04/21 07:05:47;;;;;;;81.15;60.05;;;11.80;99.90;;;;;;5076789;28;20053;-80
2021/04/21 07:08:15;;;;;;;79.35;57.08;;;11.90;99.90;;;;;;5076715;28;20053;-80
2021/04/21 07:10:45;;;;;;;80.82;59.03;;;12.00;99.90;;;;;;5079508;28;20084;-80
2021/04/21 07:13:18;;;;;;;81.35;60.33;;;12.10;99.90;;;;;;5080440;28;20135;-80
2021/04/21 07:15:45;;;;;;;77.32;60.08;;;12.10;99.90;;;;;;5082511;28;20109;-82
2021/04/21 07:18:15;;;;;;;80.78;60.70;;;12.20;99.90;;;;;;5078578;28;20044;-80
2021/04/21 07:20:42;;;;;;;81.25;60.30;;;12.20;99.90;;;;;;5076739;28;20141;-78
2021/04/21 07:23:10;;;;;;;84.28;61.38;;;12.30;99.90;;;;;;5078921;28;20186;-80
2021/04/21 07:25:38;;;;;;;87.30;62.58;;;12.30;99.90;;;;;;5080482;28;20136;-79
2021/04/21 07:28:06;;;;;;;85.25;62.22;;;12.40;99.90;;;;;;5080088;28;20063;-81
2021/04/21 07:30:34;;;;;;;84.70;62.13;;;12.40;99.90;;;;;;5078833;28;20053;-79
2021/04/21 07:33:01;;;;;;;81.38;61.85;;;12.50;99.90;;;;;;5078464;28;20063;-80
2021/04/21 07:35:30;;;;;;;84.78;61.25;;;12.60;99.90;;;;;;5078385;28;20076;-79
2021/04/21 07:37:58;;;;;;;80.32;61.03;;;12.70;99.90;;;;;;5077680;28;20052;-80
2021/04/21 07:40:31;;;;;;;77.70;59.20;;;12.80;99.90;;;;;;5078199;28;20082;-82
2021/04/21 07:43:06;;;;;;;81.63;60.00;;;13.00;99.90;;;;;;5080286;28;20088;-83
2021/04/21 07:45:45;;;;;;;77.18;59.97;;;13.10;99.90;;;;;;5080975;28;20060;-83
2021/04/21 07:48:40;;;;;;;75.68;59.10;;;13.10;99.90;;;;;;5080238;28;20044;-82
2021/04/21 07:51:29;;;;;;;76.13;58.33;;;13.30;99.90;;;;;;5081251;28;20056;-82
2021/04/21 07:54:00;;;;;;;76.57;58.00;;;13.50;99.90;;;;;;5080064;28;20048;-81
2021/04/21 07:56:33;;;;;;;73.78;58.10;;;13.70;99.90;;;;;;5081273;28;20053;-81
2021/04/21 07:59:13;;;;;;;75.68;60.50;;;13.80;99.90;;;;;;5080130;28;20111;-81
2021/04/21 08:01:42;;;;;;;78.95;58.90;;;13.80;99.90;;;;;;5080897;28;20055;-81
2021/04/21 08:04:26;;;;;;;73.40;56.92;;;13.80;99.90;;;;;;5082508;28;20106;-81
2021/04/21 08:06:55;;;;;;;72.55;55.20;;;14.30;99.90;;;;;;5080943;28;20075;-81
2021/04/21 08:09:23;;;;;;;63.90;53.03;;;15.00;99.90;;;;;;5079871;28;20044;-79
2021/04/21 08:12:12;;;;;;;65.97;52.42;;;15.70;99.90;;;;;;5080182;28;20044;-81
2021/04/21 08:14:41;;;;;;;62.72;52.58;;;16.40;99.90;;;;;;5077901;28;20181;-81
2021/04/21 08:17:08;;;;;;;63.90;51.78;;;16.90;99.90;;;;;;5080947;28;20040;-81
2021/04/21 08:19:37;;;;;;;67.45;53.17;;;17.40;99.90;;;;;;5079344;28;20055;-81
2021/04/21 08:22:04;;;;;;;62.28;50.42;;;17.60;99.90;;;;;;5079103;28;20072;-84
2021/04/21 08:24:38;;;;;;;63.67;51.55;;;17.80;99.90;;;;;;5081107;28;20112;-83
2021/04/21 08:27:06;;;;;;;66.85;54.65;;;17.80;99.90;;;;;;5077856;28;20119;-81
2021/04/21 08:29:33;;;;;;;64.72;51.42;;;17.90;99.90;;;;;;5078232;28;20125;-81
2021/04/21 08:31:59;;;;;;;64.57;51.67;;;18.00;99.90;;;;;;5076696;28;20132;-79
2021/04/21 08:34:27;;;;;;;61.92;50.67;;;18.30;99.90;;;;;;5076857;28;20048;-81
2021/04/21 08:36:53;;;;;;;62.28;49.70;;;18.20;99.90;;;;;;5078424;28;20084;-79
2021/04/21 08:39:19;;;;;;;58.67;48.25;;;18.20;99.90;;;;;;5079384;28;20080;-80
2021/04/21 08:41:48;;;;;;;56.58;46.50;;;18.30;99.90;;;;;;5078807;28;20056;-78
2021/04/21 08:44:15;;;;;;;54.78;46.92;;;18.30;99.90;;;;;;5079514;28;20045;-78
2021/04/21 08:46:41;;;;;;;54.58;47.17;;;17.90;99.90;;;;;;5076968;28;20142;-79
2021/04/21 08:49:11;;;;;;;62.00;49.40;;;17.80;99.90;;;;;;5070015;28;20326;-78
2021/04/21 08:51:45;;;;;;;73.68;51.13;;;17.50;99.90;;;;;;5067722;28;20130;-78
2021/04/21 08:54:12;;;;;;;64.32;52.08;;;17.30;99.90;;;;;;5072659;28;20067;-80
2021/04/21 08:56:42;;;;;;;64.40;52.38;;;17.10;99.90;;;;;;5072972;28;20049;-79
2021/04/21 08:59:12;;;;;;;65.07;50.53;;;17.00;99.90;;;;;;5068953;28;20059;-79
2021/04/21 09:01:38;;;;;;;60.63;51.28;;;16.90;99.90;;;;;;5064318;28;20508;-81
2021/04/21 09:04:08;;;;;;;60.58;48.92;;;16.70;99.90;;;;;;5072023;28;20061;-80
2021/04/21 09:06:37;;;;;;;56.58;47.58;;;16.70;99.90;;;;;;5063296;28;20049;-78
2021/04/21 09:09:06;;;;;;;60.38;48.42;;;16.70;99.90;;;;;;5064895;28;20065;-78
2021/04/21 09:11:33;;;;;;;58.63;48.88;;;16.80;99.90;;;;;;5066767;28;20060;-81
2021/04/21 09:13:59;;;;;;;62.40;51.70;;;16.70;99.90;;;;;;5065784;28;20049;-81
2021/04/21 09:16:26;;;;;;;58.47;47.78;;;16.70;99.90;;;;;;5067900;28;20088;-79
2021/04/21 09:18:53;;;;;;;58.45;47.45;;;16.70;99.90;;;;;;5081902;28;20064;-81
2021/04/21 09:21:23;;;;;;;58.20;48.38;;;16.80;99.90;;;;;;5080606;28;20127;-80
2021/04/21 09:23:51;;;;;;;55.75;47.78;;;16.70;99.90;;;;;;5073408;28;20056;-79
2021/04/21 09:26:21;;;;;;;57.75;45.53;;;16.70;99.90;;;;;;5078264;28;20048;-79
2021/04/21 09:28:49;;;;;;;58.72;45.88;;;16.90;99.90;;;;;;5083164;28;20315;-81
2021/04/21 09:31:17;;;;;;;55.20;45.08;;;17.10;99.90;;;;;;5079991;28;20051;-78
2021/04/21 09:33:45;;;;;;;50.53;42.45;;;17.30;99.90;;;;;;5079403;28;20048;-81
2021/04/21 09:36:12;;;;;;;50.42;43.53;;;17.30;99.90;;;;;;5077847;28;20114;-81
2021/04/21 09:38:39;;;;;;;52.00;43.70;;;17.40;99.90;;;;;;5077197;28;20076;-79
2021/04/21 09:41:18;;;;;;;48.60;41.40;;;17.50;99.90;;;;;;5077273;28;20083;-79
2021/04/21 09:43:45;;;;;;;50.90;40.95;;;17.50;99.90;;;;;;5079182;28;20051;-81
2021/04/21 09:46:17;;;;;;;55.85;41.88;;;17.50;99.90;;;;;;5079291;28;20067;-80
2021/04/21 09:48:45;;;;;;;57.53;43.23;;;17.50;99.90;;;;;;5078241;28;20078;-80
2021/04/21 09:51:13;;;;;;;59.03;45.55;;;17.60;99.90;;;;;;5076878;28;20461;-80
2021/04/21 09:53:41;;;;;;;58.60;47.50;;;17.50;99.90;;;;;;5080957;28;20045;-81
2021/04/21 09:56:21;;;;;;;62.40;47.22;;;17.30;99.90;;;;;;5080793;28;20048;-80
2021/04/21 09:58:51;;;;;;;66.05;48.13;;;17.30;99.90;;;;;;5081275;28;20574;-80
2021/04/21 10:01:33;;;;;;;62.45;49.40;;;17.20;99.90;;;;;;5080356;28;20177;-81
2021/04/21 10:04:11;;;;;;;57.33;47.42;;;17.10;99.90;;;;;;5082177;28;20040;-82
2021/04/21 10:06:40;;;;;;;59.95;45.47;;;17.00;99.90;;;;;;5088748;28;20084;-82
2021/04/21 10:09:24;;;;;;;57.20;45.72;;;16.90;99.90;;;;;;5089711;28;20028;-83
2021/04/21 10:11:50;;;;;;;54.13;44.10;;;16.80;99.90;;;;;;5089347;28;20109;-84
2021/04/21 10:14:23;;;;;;;55.70;42.92;;;16.80;99.90;;;;;;5082877;28;20131;-81
2021/04/21 10:16:51;;;;;;;54.42;43.65;;;16.90;99.90;;;;;;5088456;28;20044;-81
2021/04/21 10:19:18;;;;;;;53.80;44.13;;;16.90;99.90;;;;;;5081400;28;20056;-81
2021/04/21 10:21:45;;;;;;;54.88;42.00;;;16.90;99.90;;;;;;5077822;28;20063;-82
2021/04/21 10:24:12;;;;;;;51.22;43.67;;;16.90;99.90;;;;;;5073969;28;20111;-81
2021/04/21 10:26:39;;;;;;;47.78;41.92;;;16.90;99.90;;;;;;5056997;28;20085;-81
2021/04/21 10:29:07;;;;;;;55.28;44.33;;;16.90;99.90;;;;;;5065325;28;20041;-80
2021/04/21 10:31:35;;;;;;;54.55;43.13;;;16.90;99.90;;;;;;5077171;28;20136;-80
2021/04/21 10:34:04;;;;;;;56.15;43.17;;;16.90;99.90;;;;;;5058833;28;20441;-82
2021/04/21 10:36:30;;;;;;;52.53;43.10;;;16.90;99.90;;;;;;5061005;28;20100;-81
2021/04/21 10:38:58;;;;;;;51.65;43.72;;;16.90;99.90;;;;;;5076747;28;20041;-80
2021/04/21 10:41:35;;;;;;;48.15;41.83;;;17.00;99.90;;;;;;5076952;28;20052;-81
2021/04/21 10:44:10;;;;;;;49.78;41.40;;;17.00;99.90;;;;;;5080422;28;20048;-81
2021/04/21 10:47:06;;;;;;;54.05;40.70;;;17.10;99.90;;;;;;5064835;28;20044;-81
2021/04/21 10:49:51;;;;;;;47.40;39.70;;;17.40;99.90;;;;;;5081327;28;20052;-80
2021/04/21 10:52:20;;;;;;;47.47;39.90;;;17.60;99.90;;;;;;5070848;28;20049;-78
2021/04/21 10:54:49;;;;;;;45.63;40.45;;;17.80;99.90;;;;;;5080008;28;20048;-81
2021/04/21 10:57:30;;;;;;;43.80;39.00;;;18.00;99.90;;;;;;5079751;28;20091;-79
2021/04/21 11:00:09;;;;;;;44.10;38.20;;;17.90;99.90;;;;;;5077814;28;20566;-80
2021/04/21 11:02:51;;;;;;;47.28;38.40;;;18.00;99.90;;;;;;5064631;28;20056;-81
2021/04/21 11:05:20;;;;;;;42.42;36.40;;;18.10;99.90;;;;;;5080513;28;20072;-81
2021/04/21 11:07:58;;;;;;;41.50;36.97;;;18.30;99.90;;;;;;5072951;28;20604;-81
2021/04/21 11:10:42;;;;;;;40.47;36.00;;;18.40;99.90;;;;;;5081306;28;20070;-81
2021/04/21 11:13:10;;;;;;;36.67;32.67;;;18.50;99.90;;;;;;5068439;28;20475;-80
2021/04/21 11:15:42;;;;;;;36.35;32.33;;;18.70;99.90;;;;;;5078346;28;20108;-79
2021/04/21 11:18:25;;;;;;;41.78;31.63;;;18.70;99.90;;;;;;5077974;28;20049;-79
2021/04/21 11:21:13;;;;;;;38.67;29.30;;;18.70;99.90;;;;;;5078370;28;20060;-79
2021/04/21 11:23:52;;;;;;;39.58;32.65;;;18.60;99.90;;;;;;5071994;28;20055;-80
2021/04/21 11:26:38;;;;;;;35.55;31.73;;;18.60;99.90;;;;;;5071482;28;20045;-79
2021/04/21 11:29:06;;;;;;;37.75;30.65;;;18.70;99.90;;;;;;5071240;28;20033;-81
2021/04/21 11:32:10;;;;;;;36.13;31.63;;;18.80;99.90;;;;;;5072990;28;20048;-81
2021/04/21 11:34:39;;;;;;;39.88;30.98;;;18.80;99.90;;;;;;5074492;28;20052;-80
2021/04/21 11:37:07;;;;;;;36.58;24.55;;;18.80;99.90;;;;;;5077914;28;20056;-81
2021/04/21 11:39:58;;;;;;;30.45;21.75;;;18.80;99.90;;;;;;5070323;28;20115;-81
2021/04/21 11:42:32;;;;;;;23.08;19.05;;;18.90;99.90;;;;;;5079995;28;20051;-81
2021/04/21 11:45:17;;;;;;;29.17;23.23;;;18.80;99.90;;;;;;5083015;28;20648;-82
2021/04/21 11:47:45;;;;;;;27.50;23.25;;;18.80;99.90;;;;;;5081193;28;20128;-82
2021/04/21 11:50:15;;;;;;;24.35;20.45;;;18.70;99.90;;;;;;5082071;28;20079;-82
2021/04/21 11:52:52;;;;;;;27.00;22.52;;;18.80;99.90;;;;;;5066538;28;20110;-80
2021/04/21 11:55:34;;;;;;;25.30;21.90;;;18.90;99.90;;;;;;5072044;28;20060;-80
2021/04/21 11:58:06;;;;;;;28.95;23.83;;;19.00;99.90;;;;;;5077655;28;20080;-81
2021/04/21 12:00:35;;;;;;;28.50;22.07;;;19.10;99.90;;;;;;5072866;28;20138;-83
2021/04/21 12:03:03;;;;;;;23.25;17.25;;;19.00;99.90;;;;;;5092843;28;20290;-82
2021/04/21 12:05:34;;;;;;;21.05;17.85;;;18.90;98.90;;;;;;5085828;28;20055;-80
2021/04/21 12:08:03;;;;;;;23.00;18.85;;;19.00;98.40;;;;;;5090872;28;20072;-79
2021/04/21 12:10:33;;;;;;;24.58;20.15;;;19.10;97.00;;;;;;5088089;28;20052;-80
2021/04/21 12:13:17;;;;;;;23.73;19.40;;;19.10;97.30;;;;;;5078571;28;20056;-81
2021/04/21 12:15:45;;;;;;;21.58;18.02;;;19.00;96.00;;;;;;5085371;28;20088;-81
2021/04/21 12:18:20;;;;;;;21.83;17.40;;;19.10;96.20;;;;;;5082997;28;20053;-80
2021/04/21 12:20:47;;;;;;;19.05;16.35;;;19.10;94.80;;;;;;5085772;28;20107;-81
2021/04/21 12:23:26;;;;;;;21.23;16.17;;;19.10;94.70;;;;;;5082730;28;20049;-82
2021/04/21 12:25:52;;;;;;;19.38;15.85;;;19.10;93.80;;;;;;5077798;28;20087;-79
2021/04/21 12:28:18;;;;;;;23.15;15.90;;;19.30;93.70;;;;;;5077366;28;20044;-80
2021/04/21 12:30:53;;;;;;;22.30;15.68;;;19.30;92.20;;;;;;5068327;28;20052;-80
2021/04/21 12:33:22;;;;;;;21.85;16.05;;;19.30;92.20;;;;;;5086466;28;20051;-80
2021/04/21 12:35:52;;;;;;;18.83;15.50;;;19.40;93.70;;;;;;5081735;28;20112;-80
2021/04/21 12:38:30;;;;;;;18.30;15.48;;;19.50;93.60;;;;;;5082942;28;20044;-78
2021/04/21 12:40:58;;;;;;;20.27;16.27;;;19.60;92.40;;;;;;5070257;28;20041;-77
2021/04/21 12:43:28;;;;;;;18.25;15.88;;;19.70;93.00;;;;;;5073180;28;20155;-80
2021/04/21 12:46:09;;;;;;;20.13;14.90;;;19.50;92.00;;;;;;5068747;28;20047;-80
2021/04/21 12:48:44;;;;;;;18.20;16.17;;;19.40;92.50;;;;;;5062557;28;20041;-78
2021/04/21 12:51:18;;;;;;;18.70;16.38;;;19.60;93.40;;;;;;5072577;28;20073;-79
2021/04/21 12:53:44;;;;;;;17.33;15.00;;;19.50;91.80;;;;;;5082281;28;20056;-81
2021/04/21 12:56:12;;;;;;;18.85;16.85;;;19.40;93.30;;;;;;5079737;28;20192;-79
2021/04/21 12:58:41;;;;;;;22.00;17.88;;;19.40;94.10;;;;;;5081279;28;20146;-79
2021/04/21 13:01:09;;;;;;;19.83;16.80;;;19.50;93.70;;;;;;5079139;28;20049;-81
2021/04/21 13:03:36;;;;;;;18.08;15.73;;;19.50;94.50;;;;;;5080936;28;20539;-81